sensor_id;sensor_type;location;lat;lon;timestamp;P1;durP1;ratioP1;P2;durP2;ratioP2
74269;SDS011;62754;48.252;11.654;2023-08-31T00:00:22;2.20;;;1.35;;
74269;SDS011;62754;48.252;11.654;2023-08-31T00:02:48;3.08;;;1.70;;
74269;SDS011;62754;48.252;11.654;2023-08-31T00:05:13;3.55;;;1.77;;
74269;SDS011;62754;48.252;11.654;2023-08-31T00:07:39;4.55;;;1.65;;
74269;SDS011;62754;48.252;11.654;2023-08-31T00:10:05;3.35;;;1.65;;
74269;SDS011;62754;48.252;11.654;2023-08-31T00:12:31;2.63;;;1.58;;
74269;SDS011;62754;48.252;11.654;2023-08-31T00:14:56;2.97;;;1.70;;
74269;SDS011;62754;48.252;11.654;2023-08-31T00:17:22;3.53;;;1.60;;
74269;SDS011;62754;48.252;11.654;2023-08-31T00:19:48;2.78;;;1.75;;
74269;SDS011;62754;48.252;11.654;2023-08-31T00:22:14;3.20;;;1.83;;
74269;SDS011;62754;48.252;11.654;2023-08-31T00:24:39;4.88;;;1.92;;
74269;SDS011;62754;48.252;11.654;2023-08-31T00:27:05;2.50;;;1.80;;
74269;SDS011;62754;48.252;11.654;2023-08-31T00:29:31;2.47;;;1.75;;
74269;SDS011;62754;48.252;11.654;2023-08-31T00:31:57;2.55;;;1.60;;
74269;SDS011;62754;48.252;11.654;2023-08-31T00:34:22;2.55;;;1.52;;
74269;SDS011;62754;48.252;11.654;2023-08-31T00:36:48;2.95;;;1.70;;
74269;SDS011;62754;48.252;11.654;2023-08-31T00:39:14;3.13;;;1.70;;
74269;SDS011;62754;48.252;11.654;2023-08-31T00:41:40;3.47;;;2.00;;
74269;SDS011;62754;48.252;11.654;2023-08-31T00:44:06;3.40;;;1.70;;
74269;SDS011;62754;48.252;11.654;2023-08-31T00:46:31;4.13;;;1.88;;
74269;SDS011;62754;48.252;11.654;2023-08-31T00:48:58;3.17;;;1.92;;
74269;SDS011;62754;48.252;11.654;2023-08-31T00:51:24;2.20;;;1.50;;
74269;SDS011;62754;48.252;11.654;2023-08-31T00:53:51;4.55;;;1.80;;
74269;SDS011;62754;48.252;11.654;2023-08-31T00:56:17;3.17;;;1.85;;
74269;SDS011;62754;48.252;11.654;2023-08-31T00:58:43;3.53;;;2.00;;
74269;SDS011;62754;48.252;11.654;2023-08-31T01:10:02;3.75;;;2.15;;
74269;SDS011;62754;48.252;11.654;2023-08-31T01:12:46;2.60;;;1.75;;
74269;SDS011;62754;48.252;11.654;2023-08-31T01:15:17;3.00;;;1.90;;
74269;SDS011;62754;48.252;11.654;2023-08-31T01:17:52;3.20;;;1.63;;
74269;SDS011;62754;48.252;11.654;2023-08-31T01:20:26;2.65;;;1.92;;
74269;SDS011;62754;48.252;11.654;2023-08-31T01:23:10;2.63;;;1.63;;
74269;SDS011;62754;48.252;11.654;2023-08-31T01:25:41;3.83;;;1.70;;
74269;SDS011;62754;48.252;11.654;2023-08-31T01:28:07;2.90;;;1.70;;
74269;SDS011;62754;48.252;11.654;2023-08-31T01:30:33;2.97;;;2.00;;
74269;SDS011;62754;48.252;11.654;2023-08-31T01:32:58;2.47;;;1.65;;
74269;SDS011;62754;48.252;11.654;2023-08-31T01:35:24;3.00;;;1.80;;
74269;SDS011;62754;48.252;11.654;2023-08-31T01:43:10;5.97;;;2.25;;
74269;SDS011;62754;48.252;11.654;2023-08-31T01:45:37;3.25;;;2.33;;
74269;SDS011;62754;48.252;11.654;2023-08-31T01:48:06;4.20;;;2.40;;
74269;SDS011;62754;48.252;11.654;2023-08-31T01:50:35;4.35;;;2.45;;
74269;SDS011;62754;48.252;11.654;2023-08-31T01:53:03;3.80;;;2.30;;
74269;SDS011;62754;48.252;11.654;2023-08-31T01:55:31;4.22;;;2.55;;
74269;SDS011;62754;48.252;11.654;2023-08-31T01:58:01;4.32;;;2.80;;
74269;SDS011;62754;48.252;11.654;2023-08-31T02:00:27;4.30;;;2.35;;
74269;SDS011;62754;48.252;11.654;2023-08-31T02:02:52;5.60;;;2.45;;
74269;SDS011;62754;48.252;11.654;2023-08-31T02:05:21;3.70;;;2.20;;
74269;SDS011;62754;48.252;11.654;2023-08-31T02:07:47;5.65;;;2.55;;
74269;SDS011;62754;48.252;11.654;2023-08-31T02:10:15;4.65;;;2.35;;
74269;SDS011;62754;48.252;11.654;2023-08-31T02:12:43;4.45;;;2.45;;
74269;SDS011;62754;48.252;11.654;2023-08-31T02:15:11;4.00;;;2.30;;
74269;SDS011;62754;48.252;11.654;2023-08-31T02:17:37;4.68;;;2.38;;
74269;SDS011;62754;48.252;11.654;2023-08-31T02:20:03;3.75;;;2.53;;
74269;SDS011;62754;48.252;11.654;2023-08-31T02:22:31;4.03;;;2.10;;
74269;SDS011;62754;48.252;11.654;2023-08-31T02:24:59;3.60;;;2.40;;
74269;SDS011;62754;48.252;11.654;2023-08-31T02:27:28;3.95;;;2.55;;
74269;SDS011;62754;48.252;11.654;2023-08-31T02:29:54;3.55;;;2.75;;
74269;SDS011;62754;48.252;11.654;2023-08-31T02:32:19;4.25;;;2.50;;
74269;SDS011;62754;48.252;11.654;2023-08-31T02:34:45;3.25;;;2.50;;
74269;SDS011;62754;48.252;11.654;2023-08-31T02:37:13;4.35;;;2.50;;
74269;SDS011;62754;48.252;11.654;2023-08-31T02:39:39;8.25;;;2.80;;
74269;SDS011;62754;48.252;11.654;2023-08-31T02:42:04;3.97;;;2.58;;
74269;SDS011;62754;48.252;11.654;2023-08-31T02:44:32;5.65;;;2.70;;
74269;SDS011;62754;48.252;11.654;2023-08-31T02:47:05;5.72;;;2.75;;
74269;SDS011;62754;48.252;11.654;2023-08-31T02:49:31;4.35;;;3.05;;
74269;SDS011;62754;48.252;11.654;2023-08-31T02:51:59;4.63;;;3.22;;
74269;SDS011;62754;48.252;11.654;2023-08-31T02:54:27;3.85;;;3.03;;
74269;SDS011;62754;48.252;11.654;2023-08-31T02:56:53;4.28;;;3.17;;
74269;SDS011;62754;48.252;11.654;2023-08-31T02:59:23;4.47;;;3.17;;
74269;SDS011;62754;48.252;11.654;2023-08-31T03:01:49;4.82;;;3.75;;
74269;SDS011;62754;48.252;11.654;2023-08-31T03:04:17;5.75;;;3.53;;
74269;SDS011;62754;48.252;11.654;2023-08-31T03:06:45;4.47;;;3.60;;
74269;SDS011;62754;48.252;11.654;2023-08-31T03:09:13;4.88;;;3.58;;
74269;SDS011;62754;48.252;11.654;2023-08-31T03:11:39;5.03;;;3.47;;
74269;SDS011;62754;48.252;11.654;2023-08-31T03:14:07;5.75;;;3.85;;
74269;SDS011;62754;48.252;11.654;2023-08-31T03:16:35;5.40;;;3.05;;
74269;SDS011;62754;48.252;11.654;2023-08-31T03:19:03;5.70;;;3.58;;
74269;SDS011;62754;48.252;11.654;2023-08-31T03:21:29;4.03;;;3.30;;
74269;SDS011;62754;48.252;11.654;2023-08-31T03:23:54;4.45;;;3.20;;
74269;SDS011;62754;48.252;11.654;2023-08-31T03:26:20;5.10;;;3.30;;
74269;SDS011;62754;48.252;11.654;2023-08-31T03:28:46;5.13;;;3.42;;
74269;SDS011;62754;48.252;11.654;2023-08-31T03:31:12;7.85;;;4.03;;
74269;SDS011;62754;48.252;11.654;2023-08-31T03:33:37;5.82;;;3.03;;
74269;SDS011;62754;48.252;11.654;2023-08-31T03:36:06;4.78;;;3.20;;
74269;SDS011;62754;48.252;11.654;2023-08-31T03:38:34;6.10;;;3.47;;
74269;SDS011;62754;48.252;11.654;2023-08-31T03:41:02;5.95;;;3.90;;
74269;SDS011;62754;48.252;11.654;2023-08-31T03:43:29;5.13;;;3.90;;
74269;SDS011;62754;48.252;11.654;2023-08-31T03:45:57;5.85;;;3.72;;
74269;SDS011;62754;48.252;11.654;2023-08-31T03:48:26;7.72;;;4.50;;
74269;SDS011;62754;48.252;11.654;2023-08-31T03:50:54;5.72;;;4.30;;
74269;SDS011;62754;48.252;11.654;2023-08-31T03:53:20;5.32;;;3.95;;
74269;SDS011;62754;48.252;11.654;2023-08-31T03:55:46;5.15;;;4.10;;
74269;SDS011;62754;48.252;11.654;2023-08-31T03:58:12;6.55;;;3.70;;
74269;SDS011;62754;48.252;11.654;2023-08-31T04:00:38;6.88;;;4.43;;
74269;SDS011;62754;48.252;11.654;2023-08-31T04:03:06;4.80;;;3.50;;
74269;SDS011;62754;48.252;11.654;2023-08-31T04:05:32;5.70;;;3.80;;
74269;SDS011;62754;48.252;11.654;2023-08-31T04:10:27;5.45;;;3.78;;
74269;SDS011;62754;48.252;11.654;2023-08-31T04:12:52;6.43;;;3.95;;
74269;SDS011;62754;48.252;11.654;2023-08-31T04:15:18;6.88;;;4.05;;
74269;SDS011;62754;48.252;11.654;2023-08-31T04:17:46;4.80;;;3.83;;
74269;SDS011;62754;48.252;11.654;2023-08-31T04:20:12;5.22;;;3.08;;
74269;SDS011;62754;48.252;11.654;2023-08-31T04:22:38;5.30;;;3.55;;
74269;SDS011;62754;48.252;11.654;2023-08-31T04:25:04;4.60;;;3.60;;
74269;SDS011;62754;48.252;11.654;2023-08-31T04:27:32;6.43;;;3.90;;
74269;SDS011;62754;48.252;11.654;2023-08-31T04:30:00;7.97;;;3.35;;
74269;SDS011;62754;48.252;11.654;2023-08-31T04:32:29;4.80;;;3.22;;
74269;SDS011;62754;48.252;11.654;2023-08-31T04:34:55;5.68;;;4.00;;
74269;SDS011;62754;48.252;11.654;2023-08-31T04:37:21;5.38;;;3.60;;
74269;SDS011;62754;48.252;11.654;2023-08-31T04:39:47;4.65;;;3.53;;
74269;SDS011;62754;48.252;11.654;2023-08-31T04:42:13;6.15;;;3.55;;
74269;SDS011;62754;48.252;11.654;2023-08-31T04:44:38;5.25;;;2.90;;
74269;SDS011;62754;48.252;11.654;2023-08-31T04:47:06;4.63;;;3.28;;
74269;SDS011;62754;48.252;11.654;2023-08-31T04:49:37;4.07;;;3.38;;
74269;SDS011;62754;48.252;11.654;2023-08-31T04:52:03;5.20;;;3.40;;
74269;SDS011;62754;48.252;11.654;2023-08-31T04:54:31;5.32;;;3.28;;
74269;SDS011;62754;48.252;11.654;2023-08-31T04:57:01;5.68;;;3.25;;
74269;SDS011;62754;48.252;11.654;2023-08-31T04:59:27;4.18;;;3.28;;
74269;SDS011;62754;48.252;11.654;2023-08-31T05:01:57;4.22;;;2.75;;
74269;SDS011;62754;48.252;11.654;2023-08-31T05:04:23;4.63;;;3.00;;
74269;SDS011;62754;48.252;11.654;2023-08-31T05:06:51;3.90;;;2.90;;
74269;SDS011;62754;48.252;11.654;2023-08-31T05:09:19;5.15;;;3.40;;
74269;SDS011;62754;48.252;11.654;2023-08-31T05:11:48;5.75;;;3.33;;
74269;SDS011;62754;48.252;11.654;2023-08-31T05:14:13;5.38;;;3.10;;
74269;SDS011;62754;48.252;11.654;2023-08-31T05:16:41;4.60;;;2.75;;
74269;SDS011;62754;48.252;11.654;2023-08-31T05:19:07;4.10;;;2.90;;
74269;SDS011;62754;48.252;11.654;2023-08-31T05:21:35;4.97;;;2.90;;
74269;SDS011;62754;48.252;11.654;2023-08-31T05:24:03;5.95;;;2.80;;
74269;SDS011;62754;48.252;11.654;2023-08-31T05:26:31;4.25;;;2.60;;
74269;SDS011;62754;48.252;11.654;2023-08-31T05:28:57;4.07;;;2.65;;
74269;SDS011;62754;48.252;11.654;2023-08-31T05:31:27;4.55;;;2.90;;
74269;SDS011;62754;48.252;11.654;2023-08-31T05:33:55;4.40;;;3.00;;
74269;SDS011;62754;48.252;11.654;2023-08-31T05:36:23;4.50;;;2.78;;
74269;SDS011;62754;48.252;11.654;2023-08-31T05:38:50;4.40;;;2.42;;
74269;SDS011;62754;48.252;11.654;2023-08-31T05:41:18;3.75;;;2.63;;
74269;SDS011;62754;48.252;11.654;2023-08-31T05:43:44;5.45;;;2.70;;
74269;SDS011;62754;48.252;11.654;2023-08-31T05:46:12;3.50;;;2.45;;
74269;SDS011;62754;48.252;11.654;2023-08-31T05:48:37;5.32;;;2.38;;
74269;SDS011;62754;48.252;11.654;2023-08-31T05:51:05;4.38;;;2.60;;
74269;SDS011;62754;48.252;11.654;2023-08-31T05:53:34;5.45;;;2.58;;
74269;SDS011;62754;48.252;11.654;2023-08-31T05:56:00;3.70;;;2.40;;
74269;SDS011;62754;48.252;11.654;2023-08-31T05:58:28;3.92;;;2.40;;
74269;SDS011;62754;48.252;11.654;2023-08-31T06:00:57;4.60;;;2.40;;
74269;SDS011;62754;48.252;11.654;2023-08-31T06:03:23;4.35;;;2.55;;
74269;SDS011;62754;48.252;11.654;2023-08-31T06:05:51;3.78;;;2.30;;
74269;SDS011;62754;48.252;11.654;2023-08-31T06:08:19;4.78;;;2.60;;
74269;SDS011;62754;48.252;11.654;2023-08-31T06:10:50;4.22;;;2.10;;
74269;SDS011;62754;48.252;11.654;2023-08-31T06:13:18;4.40;;;2.40;;
74269;SDS011;62754;48.252;11.654;2023-08-31T06:15:44;3.67;;;1.90;;
74269;SDS011;62754;48.252;11.654;2023-08-31T06:18:12;4.90;;;2.40;;
74269;SDS011;62754;48.252;11.654;2023-08-31T06:20:38;4.18;;;1.92;;
74269;SDS011;62754;48.252;11.654;2023-08-31T06:23:06;3.67;;;2.05;;
74269;SDS011;62754;48.252;11.654;2023-08-31T06:25:32;3.85;;;2.17;;
74269;SDS011;62754;48.252;11.654;2023-08-31T06:27:58;3.40;;;1.80;;
74269;SDS011;62754;48.252;11.654;2023-08-31T06:30:23;3.45;;;1.80;;
74269;SDS011;62754;48.252;11.654;2023-08-31T06:32:49;5.70;;;2.15;;
74269;SDS011;62754;48.252;11.654;2023-08-31T06:35:15;3.67;;;1.95;;
74269;SDS011;62754;48.252;11.654;2023-08-31T06:37:41;4.28;;;1.75;;
74269;SDS011;62754;48.252;11.654;2023-08-31T06:40:10;3.22;;;1.70;;
74269;SDS011;62754;48.252;11.654;2023-08-31T06:42:36;5.43;;;2.03;;
74269;SDS011;62754;48.252;11.654;2023-08-31T06:45:04;3.55;;;1.58;;
74269;SDS011;62754;48.252;11.654;2023-08-31T06:47:34;3.40;;;1.85;;
74269;SDS011;62754;48.252;11.654;2023-08-31T06:50:04;4.93;;;1.83;;
74269;SDS011;62754;48.252;11.654;2023-08-31T06:52:33;4.22;;;1.67;;
74269;SDS011;62754;48.252;11.654;2023-08-31T06:54:58;3.00;;;1.58;;
74269;SDS011;62754;48.252;11.654;2023-08-31T06:57:24;5.45;;;1.85;;
74269;SDS011;62754;48.252;11.654;2023-08-31T06:59:53;3.75;;;2.00;;
74269;SDS011;62754;48.252;11.654;2023-08-31T07:02:25;4.10;;;1.75;;
74269;SDS011;62754;48.252;11.654;2023-08-31T07:04:52;3.78;;;1.83;;
74269;SDS011;62754;48.252;11.654;2023-08-31T07:07:18;3.08;;;1.70;;
74269;SDS011;62754;48.252;11.654;2023-08-31T07:09:44;3.08;;;1.90;;
74269;SDS011;62754;48.252;11.654;2023-08-31T07:12:11;3.75;;;1.58;;
74269;SDS011;62754;48.252;11.654;2023-08-31T07:14:39;3.33;;;1.58;;
74269;SDS011;62754;48.252;11.654;2023-08-31T07:17:05;6.38;;;1.77;;
74269;SDS011;62754;48.252;11.654;2023-08-31T07:19:31;2.50;;;1.30;;
74269;SDS011;62754;48.252;11.654;2023-08-31T07:21:57;4.38;;;1.50;;
74269;SDS011;62754;48.252;11.654;2023-08-31T07:24:27;2.83;;;1.70;;
74269;SDS011;62754;48.252;11.654;2023-08-31T07:26:57;3.17;;;1.70;;
74269;SDS011;62754;48.252;11.654;2023-08-31T07:29:25;5.40;;;1.50;;
74269;SDS011;62754;48.252;11.654;2023-08-31T07:31:51;2.97;;;1.23;;
74269;SDS011;62754;48.252;11.654;2023-08-31T07:34:17;4.82;;;1.48;;
74269;SDS011;62754;48.252;11.654;2023-08-31T07:36:43;3.35;;;1.80;;
74269;SDS011;62754;48.252;11.654;2023-08-31T07:39:11;8.13;;;1.60;;
74269;SDS011;62754;48.252;11.654;2023-08-31T07:41:46;3.85;;;1.58;;
74269;SDS011;62754;48.252;11.654;2023-08-31T07:44:12;3.70;;;1.60;;
74269;SDS011;62754;48.252;11.654;2023-08-31T07:46:38;3.67;;;1.70;;
74269;SDS011;62754;48.252;11.654;2023-08-31T07:49:04;3.33;;;1.40;;
74269;SDS011;62754;48.252;11.654;2023-08-31T07:51:32;4.13;;;1.85;;
74269;SDS011;62754;48.252;11.654;2023-08-31T07:53:59;4.22;;;1.77;;
74269;SDS011;62754;48.252;11.654;2023-08-31T07:56:29;2.80;;;1.40;;
74269;SDS011;62754;48.252;11.654;2023-08-31T07:58:55;3.20;;;1.50;;
74269;SDS011;62754;48.252;11.654;2023-08-31T08:01:25;3.63;;;1.60;;
74269;SDS011;62754;48.252;11.654;2023-08-31T08:03:51;3.17;;;1.40;;
74269;SDS011;62754;48.252;11.654;2023-08-31T08:06:19;3.22;;;1.50;;
74269;SDS011;62754;48.252;11.654;2023-08-31T08:08:44;4.32;;;1.40;;
74269;SDS011;62754;48.252;11.654;2023-08-31T08:11:10;4.90;;;1.70;;
74269;SDS011;62754;48.252;11.654;2023-08-31T08:13:40;4.60;;;1.80;;
74269;SDS011;62754;48.252;11.654;2023-08-31T08:16:06;3.35;;;1.50;;
74269;SDS011;62754;48.252;11.654;2023-08-31T08:18:36;3.97;;;1.55;;
74269;SDS011;62754;48.252;11.654;2023-08-31T08:21:02;3.08;;;1.60;;
74269;SDS011;62754;48.252;11.654;2023-08-31T08:23:30;3.95;;;1.27;;
74269;SDS011;62754;48.252;11.654;2023-08-31T08:25:59;4.20;;;1.60;;
74269;SDS011;62754;48.252;11.654;2023-08-31T08:28:27;5.90;;;1.70;;
74269;SDS011;62754;48.252;11.654;2023-08-31T08:30:55;4.05;;;1.45;;
74269;SDS011;62754;48.252;11.654;2023-08-31T08:33:21;5.68;;;2.33;;
74269;SDS011;62754;48.252;11.654;2023-08-31T08:35:49;3.65;;;1.25;;
74269;SDS011;62754;48.252;11.654;2023-08-31T08:38:14;4.32;;;1.52;;
74269;SDS011;62754;48.252;11.654;2023-08-31T08:40:43;3.47;;;1.40;;
74269;SDS011;62754;48.252;11.654;2023-08-31T08:43:13;6.05;;;1.60;;
74269;SDS011;62754;48.252;11.654;2023-08-31T08:45:45;3.90;;;1.35;;
74269;SDS011;62754;48.252;11.654;2023-08-31T08:48:12;4.32;;;1.33;;
74269;SDS011;62754;48.252;11.654;2023-08-31T08:50:44;3.95;;;1.60;;
74269;SDS011;62754;48.252;11.654;2023-08-31T08:53:12;2.60;;;1.40;;
74269;SDS011;62754;48.252;11.654;2023-08-31T08:55:41;2.85;;;1.48;;
74269;SDS011;62754;48.252;11.654;2023-08-31T08:58:07;3.40;;;1.60;;
74269;SDS011;62754;48.252;11.654;2023-08-31T09:00:35;5.30;;;1.40;;
74269;SDS011;62754;48.252;11.654;2023-08-31T09:03:04;2.63;;;1.20;;
74269;SDS011;62754;48.252;11.654;2023-08-31T09:05:34;3.65;;;1.88;;
74269;SDS011;62754;48.252;11.654;2023-08-31T09:08:04;4.90;;;1.80;;
74269;SDS011;62754;48.252;11.654;2023-08-31T09:10:49;4.18;;;1.40;;
74269;SDS011;62754;48.252;11.654;2023-08-31T09:13:15;3.22;;;1.60;;
74269;SDS011;62754;48.252;11.654;2023-08-31T09:15:49;5.82;;;1.80;;
74269;SDS011;62754;48.252;11.654;2023-08-31T09:18:24;4.35;;;1.63;;
74269;SDS011;62754;48.252;11.654;2023-08-31T09:20:53;4.25;;;1.50;;
74269;SDS011;62754;48.252;11.654;2023-08-31T09:23:22;3.72;;;1.70;;
74269;SDS011;62754;48.252;11.654;2023-08-31T09:25:49;6.15;;;1.48;;
74269;SDS011;62754;48.252;11.654;2023-08-31T09:28:16;2.90;;;1.27;;
74269;SDS011;62754;48.252;11.654;2023-08-31T09:30:45;4.25;;;1.80;;
74269;SDS011;62754;48.252;11.654;2023-08-31T09:33:19;6.35;;;1.73;;
74269;SDS011;62754;48.252;11.654;2023-08-31T09:35:53;6.07;;;1.83;;
74269;SDS011;62754;48.252;11.654;2023-08-31T09:38:24;3.25;;;1.40;;
74269;SDS011;62754;48.252;11.654;2023-08-31T09:40:52;2.95;;;1.42;;
74269;SDS011;62754;48.252;11.654;2023-08-31T09:43:31;4.80;;;1.92;;
74269;SDS011;62754;48.252;11.654;2023-08-31T09:45:56;3.72;;;1.60;;
74269;SDS011;62754;48.252;11.654;2023-08-31T09:48:24;6.32;;;1.80;;
74269;SDS011;62754;48.252;11.654;2023-08-31T09:50:51;3.22;;;1.48;;
74269;SDS011;62754;48.252;11.654;2023-08-31T09:55:45;5.68;;;1.55;;
74269;SDS011;62754;48.252;11.654;2023-08-31T09:58:13;5.43;;;1.77;;
74269;SDS011;62754;48.252;11.654;2023-08-31T10:00:42;4.05;;;1.52;;
74269;SDS011;62754;48.252;11.654;2023-08-31T10:03:11;4.25;;;1.67;;
74269;SDS011;62754;48.252;11.654;2023-08-31T10:05:40;4.78;;;1.77;;
74269;SDS011;62754;48.252;11.654;2023-08-31T10:08:05;3.80;;;1.70;;
74269;SDS011;62754;48.252;11.654;2023-08-31T10:10:32;4.38;;;1.73;;
74269;SDS011;62754;48.252;11.654;2023-08-31T10:13:02;5.53;;;1.83;;
74269;SDS011;62754;48.252;11.654;2023-08-31T10:15:33;8.32;;;2.00;;
74269;SDS011;62754;48.252;11.654;2023-08-31T10:18:00;3.33;;;1.60;;
74269;SDS011;62754;48.252;11.654;2023-08-31T10:20:32;3.90;;;1.90;;
74269;SDS011;62754;48.252;11.654;2023-08-31T10:22:59;4.25;;;1.83;;
74269;SDS011;62754;48.252;11.654;2023-08-31T10:28:24;4.05;;;1.80;;
74269;SDS011;62754;48.252;11.654;2023-08-31T10:31:04;5.35;;;1.80;;
74269;SDS011;62754;48.252;11.654;2023-08-31T10:33:32;4.88;;;1.60;;
74269;SDS011;62754;48.252;11.654;2023-08-31T10:38:41;6.28;;;1.90;;
74269;SDS011;62754;48.252;11.654;2023-08-31T10:48:55;5.03;;;2.00;;
74269;SDS011;62754;48.252;11.654;2023-08-31T10:51:29;4.53;;;1.90;;
74269;SDS011;62754;48.252;11.654;2023-08-31T10:56:38;3.15;;;1.85;;
74269;SDS011;62754;48.252;11.654;2023-08-31T10:59:16;3.90;;;2.10;;
74269;SDS011;62754;48.252;11.654;2023-08-31T11:04:18;6.80;;;2.40;;
74269;SDS011;62754;48.252;11.654;2023-08-31T11:06:44;4.40;;;2.28;;
74269;SDS011;62754;48.252;11.654;2023-08-31T11:09:17;5.88;;;2.05;;
74269;SDS011;62754;48.252;11.654;2023-08-31T11:11:44;5.57;;;1.67;;
74269;SDS011;62754;48.252;11.654;2023-08-31T11:14:10;4.50;;;1.48;;
74269;SDS011;62754;48.252;11.654;2023-08-31T11:16:37;6.63;;;1.75;;
74269;SDS011;62754;48.252;11.654;2023-08-31T11:19:03;6.13;;;1.88;;
74269;SDS011;62754;48.252;11.654;2023-08-31T11:21:30;4.72;;;2.20;;
74269;SDS011;62754;48.252;11.654;2023-08-31T11:26:29;5.03;;;1.30;;
74269;SDS011;62754;48.252;11.654;2023-08-31T11:28:57;7.90;;;1.60;;
74269;SDS011;62754;48.252;11.654;2023-08-31T11:31:26;3.35;;;1.40;;
74269;SDS011;62754;48.252;11.654;2023-08-31T11:33:52;5.22;;;1.73;;
74269;SDS011;62754;48.252;11.654;2023-08-31T11:36:19;6.18;;;1.75;;
74269;SDS011;62754;48.252;11.654;2023-08-31T11:38:47;5.38;;;1.92;;
74269;SDS011;62754;48.252;11.654;2023-08-31T11:41:14;4.18;;;1.38;;
74269;SDS011;62754;48.252;11.654;2023-08-31T11:43:40;3.58;;;1.25;;
74269;SDS011;62754;48.252;11.654;2023-08-31T11:46:06;4.95;;;1.30;;
74269;SDS011;62754;48.252;11.654;2023-08-31T11:50:58;4.43;;;1.80;;
74269;SDS011;62754;48.252;11.654;2023-08-31T11:53:25;3.35;;;1.30;;
74269;SDS011;62754;48.252;11.654;2023-08-31T11:55:54;4.38;;;2.15;;
74269;SDS011;62754;48.252;11.654;2023-08-31T11:58:22;3.70;;;1.33;;
74269;SDS011;62754;48.252;11.654;2023-08-31T12:01:00;4.72;;;1.45;;
74269;SDS011;62754;48.252;11.654;2023-08-31T12:03:26;3.42;;;1.45;;
74269;SDS011;62754;48.252;11.654;2023-08-31T12:05:52;3.35;;;1.40;;
74269;SDS011;62754;48.252;11.654;2023-08-31T12:08:25;4.45;;;1.50;;
74269;SDS011;62754;48.252;11.654;2023-08-31T12:10:52;4.57;;;1.40;;
74269;SDS011;62754;48.252;11.654;2023-08-31T12:13:20;4.15;;;1.15;;
74269;SDS011;62754;48.252;11.654;2023-08-31T12:15:45;3.75;;;1.23;;
74269;SDS011;62754;48.252;11.654;2023-08-31T12:18:12;2.65;;;1.13;;
74269;SDS011;62754;48.252;11.654;2023-08-31T12:20:45;2.90;;;1.27;;
74269;SDS011;62754;48.252;11.654;2023-08-31T12:23:15;3.58;;;1.27;;
74269;SDS011;62754;48.252;11.654;2023-08-31T12:25:47;4.75;;;1.30;;
74269;SDS011;62754;48.252;11.654;2023-08-31T12:28:20;3.35;;;1.25;;
74269;SDS011;62754;48.252;11.654;2023-08-31T12:30:48;5.03;;;1.30;;
74269;SDS011;62754;48.252;11.654;2023-08-31T12:33:18;2.75;;;1.20;;
74269;SDS011;62754;48.252;11.654;2023-08-31T12:35:44;3.10;;;1.25;;
74269;SDS011;62754;48.252;11.654;2023-08-31T12:38:11;4.22;;;1.25;;
74269;SDS011;62754;48.252;11.654;2023-08-31T12:40:37;4.40;;;1.50;;
74269;SDS011;62754;48.252;11.654;2023-08-31T12:43:05;3.92;;;1.48;;
74269;SDS011;62754;48.252;11.654;2023-08-31T12:45:33;7.05;;;1.70;;
74269;SDS011;62754;48.252;11.654;2023-08-31T12:47:59;3.38;;;1.38;;
74269;SDS011;62754;48.252;11.654;2023-08-31T12:50:28;4.82;;;1.35;;
74269;SDS011;62754;48.252;11.654;2023-08-31T12:52:53;3.67;;;1.40;;
74269;SDS011;62754;48.252;11.654;2023-08-31T12:55:19;3.85;;;1.45;;
74269;SDS011;62754;48.252;11.654;2023-08-31T12:57:45;5.07;;;1.75;;
74269;SDS011;62754;48.252;11.654;2023-08-31T13:00:16;6.95;;;1.60;;
74269;SDS011;62754;48.252;11.654;2023-08-31T13:02:42;5.50;;;1.42;;
74269;SDS011;62754;48.252;11.654;2023-08-31T13:05:10;2.95;;;1.55;;
74269;SDS011;62754;48.252;11.654;2023-08-31T13:07:36;2.70;;;1.33;;
74269;SDS011;62754;48.252;11.654;2023-08-31T13:10:04;3.70;;;1.40;;
74269;SDS011;62754;48.252;11.654;2023-08-31T13:12:31;6.88;;;1.20;;
74269;SDS011;62754;48.252;11.654;2023-08-31T13:14:59;3.40;;;1.27;;
74269;SDS011;62754;48.252;11.654;2023-08-31T13:17:26;3.33;;;1.25;;
74269;SDS011;62754;48.252;11.654;2023-08-31T13:19:54;3.85;;;1.42;;
74269;SDS011;62754;48.252;11.654;2023-08-31T13:22:21;5.00;;;1.48;;
74269;SDS011;62754;48.252;11.654;2023-08-31T13:24:50;6.75;;;1.42;;
74269;SDS011;62754;48.252;11.654;2023-08-31T13:27:18;3.95;;;1.45;;
74269;SDS011;62754;48.252;11.654;2023-08-31T13:29:44;4.63;;;1.70;;
74269;SDS011;62754;48.252;11.654;2023-08-31T13:32:10;3.60;;;1.35;;
74269;SDS011;62754;48.252;11.654;2023-08-31T13:34:35;4.60;;;1.65;;
74269;SDS011;62754;48.252;11.654;2023-08-31T13:37:04;5.78;;;1.60;;
74269;SDS011;62754;48.252;11.654;2023-08-31T13:39:30;4.88;;;1.60;;
74269;SDS011;62754;48.252;11.654;2023-08-31T13:41:56;5.15;;;1.80;;
74269;SDS011;62754;48.252;11.654;2023-08-31T13:44:24;4.75;;;1.50;;
74269;SDS011;62754;48.252;11.654;2023-08-31T13:46:53;5.10;;;1.50;;
74269;SDS011;62754;48.252;11.654;2023-08-31T13:49:19;4.45;;;1.60;;
74269;SDS011;62754;48.252;11.654;2023-08-31T13:51:47;4.07;;;1.70;;
74269;SDS011;62754;48.252;11.654;2023-08-31T13:54:15;6.45;;;1.65;;
74269;SDS011;62754;48.252;11.654;2023-08-31T13:56:40;6.70;;;1.73;;
74269;SDS011;62754;48.252;11.654;2023-08-31T14:01:32;3.50;;;1.42;;
74269;SDS011;62754;48.252;11.654;2023-08-31T14:03:57;5.53;;;1.63;;
74269;SDS011;62754;48.252;11.654;2023-08-31T14:06:25;4.53;;;1.63;;
74269;SDS011;62754;48.252;11.654;2023-08-31T14:08:53;4.50;;;1.52;;
74269;SDS011;62754;48.252;11.654;2023-08-31T14:13:45;3.58;;;1.48;;
74269;SDS011;62754;48.252;11.654;2023-08-31T14:16:10;2.67;;;1.10;;
74269;SDS011;62754;48.252;11.654;2023-08-31T14:18:38;2.92;;;1.05;;
74269;SDS011;62754;48.252;11.654;2023-08-31T14:21:15;4.43;;;1.20;;
74269;SDS011;62754;48.252;11.654;2023-08-31T14:23:41;3.53;;;1.30;;
74269;SDS011;62754;48.252;11.654;2023-08-31T14:26:06;5.78;;;1.40;;
74269;SDS011;62754;48.252;11.654;2023-08-31T14:28:32;5.05;;;2.17;;
74269;SDS011;62754;48.252;11.654;2023-08-31T14:31:03;4.65;;;1.45;;
74269;SDS011;62754;48.252;11.654;2023-08-31T14:33:32;3.97;;;1.30;;
74269;SDS011;62754;48.252;11.654;2023-08-31T14:35:58;2.60;;;1.10;;
74269;SDS011;62754;48.252;11.654;2023-08-31T14:40:52;3.53;;;1.17;;
74269;SDS011;62754;48.252;11.654;2023-08-31T14:43:18;3.60;;;1.50;;
74269;SDS011;62754;48.252;11.654;2023-08-31T14:45:43;4.32;;;1.30;;
74269;SDS011;62754;48.252;11.654;2023-08-31T14:48:11;3.72;;;1.50;;
74269;SDS011;62754;48.252;11.654;2023-08-31T14:50:39;3.90;;;1.35;;
74269;SDS011;62754;48.252;11.654;2023-08-31T14:53:10;4.28;;;1.48;;
74269;SDS011;62754;48.252;11.654;2023-08-31T14:55:36;3.13;;;1.45;;
74269;SDS011;62754;48.252;11.654;2023-08-31T14:58:02;3.63;;;1.25;;
74269;SDS011;62754;48.252;11.654;2023-08-31T15:00:29;4.10;;;1.33;;
74269;SDS011;62754;48.252;11.654;2023-08-31T15:02:57;3.00;;;1.20;;
74269;SDS011;62754;48.252;11.654;2023-08-31T15:05:25;4.93;;;1.38;;
74269;SDS011;62754;48.252;11.654;2023-08-31T15:07:51;3.72;;;1.33;;
74269;SDS011;62754;48.252;11.654;2023-08-31T15:10:17;4.35;;;1.83;;
74269;SDS011;62754;48.252;11.654;2023-08-31T15:12:42;3.60;;;1.30;;
74269;SDS011;62754;48.252;11.654;2023-08-31T15:15:11;4.13;;;1.50;;
74269;SDS011;62754;48.252;11.654;2023-08-31T15:17:37;2.55;;;1.30;;
74269;SDS011;62754;48.252;11.654;2023-08-31T15:20:07;4.72;;;1.17;;
74269;SDS011;62754;48.252;11.654;2023-08-31T15:22:36;5.05;;;1.88;;
74269;SDS011;62754;48.252;11.654;2023-08-31T15:25:05;4.15;;;1.55;;